createdAt,value
2022-09-17T00:02:35.172Z,2.38
2022-09-17T00:07:37.024Z,1.40
2022-09-17T00:12:38.945Z,1.33
2022-09-17T00:17:41.951Z,1.23
2022-09-17T00:22:43.783Z,1.10
2022-09-17T00:27:46.276Z,1.30
2022-09-17T00:32:48.066Z,1.17
2022-09-17T00:37:49.941Z,1.00
2022-09-17T00:42:53.480Z,1.00
2022-09-17T00:48:06.489Z,1.30
2022-09-17T00:53:12.483Z,1.65
2022-09-17T00:58:16.917Z,1.40
2022-09-17T01:03:19.148Z,1.02
2022-09-17T01:08:23.841Z,1.05
2022-09-17T01:13:43.527Z,0.95
2022-09-17T01:19:09.087Z,1.05
2022-09-17T01:24:13.738Z,1.02
2022-09-17T01:29:36.637Z,0.90
2022-09-17T01:34:56.634Z,1.15
2022-09-17T01:40:11.776Z,0.80
2022-09-17T01:45:31.626Z,1.20
2022-09-17T01:50:39.692Z,1.30
2022-09-17T01:55:45.815Z,1.42
2022-09-17T02:00:53.434Z,1.20
2022-09-17T02:06:13.144Z,0.90
2022-09-17T02:11:17.218Z,0.68
2022-09-17T02:16:24.715Z,0.90
2022-09-17T02:21:38.750Z,0.70
2022-09-17T02:26:46.477Z,1.00
2022-09-17T02:31:48.358Z,1.13
2022-09-17T02:36:50.291Z,1.13
2022-09-17T02:41:52.030Z,0.98
2022-09-17T02:47:15.114Z,1.20
2022-09-17T02:52:32.875Z,1.02
2022-09-17T02:57:45.787Z,1.67
2022-09-17T03:02:53.574Z,1.05
2022-09-17T03:07:57.285Z,0.98
2022-09-17T03:12:59.553Z,1.10
2022-09-17T03:18:02.039Z,1.48
2022-09-17T03:23:03.927Z,0.80
2022-09-17T03:28:05.734Z,1.08
2022-09-17T03:33:07.523Z,1.23
2022-09-17T03:38:09.344Z,1.80
2022-09-17T03:43:11.406Z,1.52
2022-09-17T03:48:13.179Z,1.20
2022-09-17T03:53:15.510Z,1.17
2022-09-17T03:58:17.394Z,1.30
2022-09-17T04:03:19.825Z,1.58
2022-09-17T04:08:22.073Z,1.55
2022-09-17T04:13:23.941Z,1.10
2022-09-17T04:18:25.768Z,1.20
2022-09-17T04:23:27.577Z,1.30
2022-09-17T04:28:29.570Z,1.33
2022-09-17T04:33:31.379Z,1.17
2022-09-17T04:38:33.699Z,1.48
2022-09-17T04:43:35.693Z,1.10
2022-09-17T04:48:37.713Z,1.02
2022-09-17T04:53:39.516Z,1.35
2022-09-17T04:58:41.852Z,1.20
2022-09-17T05:03:43.683Z,1.60
2022-09-17T05:08:45.508Z,1.30
2022-09-17T05:13:47.380Z,1.48
2022-09-17T05:18:51.271Z,1.35
2022-09-17T05:23:53.133Z,1.58
2022-09-17T05:28:55.133Z,1.70
2022-09-17T05:33:58.488Z,1.58
2022-09-17T05:39:00.335Z,1.27
2022-09-17T05:44:02.338Z,1.90
2022-09-17T05:49:05.106Z,1.83
2022-09-17T05:54:07.596Z,2.38
2022-09-17T05:59:09.417Z,2.75
2022-09-17T06:04:11.543Z,1.65
2022-09-17T06:09:13.882Z,2.33
2022-09-17T06:14:16.422Z,3.10
2022-09-17T06:19:18.229Z,3.80
2022-09-17T06:24:20.050Z,5.97
2022-09-17T06:29:21.880Z,3.60
2022-09-17T06:34:23.673Z,1.60
2022-09-17T06:39:25.476Z,1.35
2022-09-17T06:44:27.483Z,0.70
2022-09-17T06:49:31.201Z,1.00
2022-09-17T06:54:33.602Z,0.82
2022-09-17T06:59:35.450Z,0.40
2022-09-17T07:04:37.482Z,0.40
2022-09-17T07:09:39.320Z,0.40
2022-09-17T07:14:41.281Z,0.80
2022-09-17T07:19:43.243Z,0.30
2022-09-17T07:24:45.105Z,0.50
2022-09-17T07:29:46.908Z,0.73
2022-09-17T07:34:49.370Z,1.08
2022-09-17T07:39:53.331Z,1.67
2022-09-17T07:44:58.650Z,3.47
2022-09-17T07:50:03.076Z,3.20
2022-09-17T07:55:05.586Z,3.55
2022-09-17T08:00:08.322Z,3.20
2022-09-17T08:05:15.679Z,4.00
2022-09-17T08:10:21.770Z,4.43
2022-09-17T08:15:24.105Z,4.57
2022-09-17T08:20:26.980Z,4.07
2022-09-17T08:25:28.943Z,4.18
2022-09-17T08:30:31.950Z,4.22
2022-09-17T08:35:33.733Z,3.90
2022-09-17T08:40:46.054Z,3.55
2022-09-17T08:45:54.698Z,2.40
2022-09-17T08:51:02.428Z,3.70
2022-09-17T08:56:16.419Z,2.87
2022-09-17T09:01:24.515Z,2.05
2022-09-17T09:06:32.872Z,2.00
2022-09-17T09:11:35.059Z,2.80
2022-09-17T09:16:41.622Z,2.00
2022-09-17T09:22:20.907Z,1.65
2022-09-17T09:27:32.930Z,1.65
2022-09-17T09:32:49.686Z,1.58
2022-09-17T09:38:07.484Z,1.55
2022-09-17T09:43:19.651Z,1.70
2022-09-17T09:48:35.202Z,1.90
2022-09-17T09:53:43.517Z,1.60
2022-09-17T09:58:45.360Z,1.38
2022-09-17T10:03:48.556Z,1.48
2022-09-17T10:08:50.305Z,1.45
2022-09-17T10:13:52.265Z,1.20
2022-09-17T10:19:06.358Z,1.25
2022-09-17T10:24:24.384Z,0.98
2022-09-17T10:29:26.717Z,1.10
2022-09-17T10:34:31.515Z,1.40
2022-09-17T10:39:38.626Z,1.00
2022-09-17T10:44:55.763Z,0.52
2022-09-17T10:50:01.492Z,0.55
2022-09-17T10:55:23.542Z,0.52
2022-09-17T11:00:28.818Z,0.73
2022-09-17T11:06:14.510Z,0.70
2022-09-17T11:11:35.277Z,1.27
2022-09-17T11:16:38.466Z,1.27
2022-09-17T11:21:49.210Z,1.40
2022-09-17T11:27:12.215Z,0.70
2022-09-17T11:32:45.031Z,1.23
2022-09-17T11:37:59.756Z,1.83
2022-09-17T11:43:29.281Z,1.35
2022-09-17T11:49:12.808Z,1.10
2022-09-17T11:54:20.832Z,1.00
2022-09-17T11:59:41.273Z,1.05
2022-09-17T12:05:06.952Z,0.98
2022-09-17T12:10:32.150Z,1.33
2022-09-17T12:15:38.686Z,1.70
2022-09-17T12:20:45.710Z,1.50
2022-09-17T12:26:19.044Z,1.17
2022-09-17T12:31:49.847Z,1.20
2022-09-17T12:37:11.089Z,1.30
2022-09-17T12:42:21.666Z,1.30
2022-09-17T12:47:35.318Z,1.50
2022-09-17T12:52:58.963Z,1.58
2022-09-17T12:58:30.782Z,1.17
2022-09-17T13:03:35.793Z,1.17
2022-09-17T13:08:40.395Z,1.05
2022-09-17T13:14:00.687Z,1.48
2022-09-17T13:19:42.578Z,1.17
2022-09-17T13:24:49.197Z,1.73
2022-09-17T13:29:54.101Z,1.42
2022-09-17T13:35:01.621Z,0.90
2022-09-17T13:40:06.982Z,0.70
2022-09-17T13:45:16.668Z,5.82
2022-09-17T13:50:35.777Z,2.10
2022-09-17T13:55:41.105Z,2.38
2022-09-17T14:01:01.672Z,1.55
2022-09-17T14:06:04.052Z,1.15
2022-09-17T14:11:26.877Z,1.20
2022-09-17T14:16:38.729Z,2.17
2022-09-17T14:21:41.238Z,0.80
2022-09-17T14:26:52.610Z,1.15
2022-09-17T14:31:55.923Z,1.25
2022-09-17T14:36:59.201Z,1.05
2022-09-17T14:42:01.842Z,0.90
2022-09-17T14:47:10.527Z,1.20
2022-09-17T14:52:26.399Z,1.02
2022-09-17T14:57:29.831Z,1.13
2022-09-17T15:02:43.539Z,1.17
2022-09-17T15:07:46.561Z,0.98
2022-09-17T15:12:50.629Z,1.38
2022-09-17T15:17:53.943Z,1.92
2022-09-17T15:23:18.080Z,2.92
2022-09-17T15:28:40.295Z,2.42
2022-09-17T15:33:42.888Z,3.78
2022-09-17T15:38:45.122Z,4.28
2022-09-17T15:43:47.308Z,3.25
2022-09-17T15:48:49.202Z,1.42
2022-09-17T15:53:53.583Z,1.58
2022-09-17T15:58:58.934Z,1.33
2022-09-17T16:04:22.865Z,1.13
2022-09-17T16:09:42.151Z,1.10
2022-09-17T16:14:49.440Z,3.22
2022-09-17T16:19:51.926Z,1.30
2022-09-17T16:24:53.855Z,1.13
2022-09-17T16:30:09.798Z,0.90
2022-09-17T16:35:17.656Z,1.38
2022-09-17T16:40:22.441Z,0.90
2022-09-17T16:45:28.833Z,1.85
2022-09-17T16:50:33.931Z,1.42
2022-09-17T16:55:36.244Z,0.95
2022-09-17T17:00:38.362Z,1.40
2022-09-17T17:05:41.053Z,1.10
2022-09-17T17:10:43.534Z,1.25
2022-09-17T17:15:45.878Z,0.85
2022-09-17T17:20:48.925Z,1.30
2022-09-17T17:25:50.883Z,1.50
2022-09-17T17:30:52.974Z,1.58
2022-09-17T17:35:55.718Z,1.27
2022-09-17T17:41:13.582Z,1.20
2022-09-17T17:46:16.177Z,2.47
2022-09-17T17:51:19.909Z,1.33
2022-09-17T17:56:23.555Z,0.95
2022-09-17T18:01:29.459Z,1.02
2022-09-17T18:06:33.985Z,1.30
2022-09-17T18:11:36.145Z,1.02
2022-09-17T18:16:38.958Z,1.60
2022-09-17T18:21:41.739Z,1.10
2022-09-17T18:26:44.095Z,0.55
2022-09-17T18:31:46.168Z,0.90
2022-09-17T18:36:51.210Z,0.73
2022-09-17T18:41:53.498Z,1.02
2022-09-17T18:46:55.575Z,0.50
2022-09-17T18:51:57.611Z,0.57
2022-09-17T18:56:59.850Z,0.60
2022-09-17T19:02:01.860Z,0.47
2022-09-17T19:07:03.869Z,0.73
2022-09-17T19:12:06.232Z,0.52
2022-09-17T19:17:09.411Z,0.60
2022-09-17T19:22:14.795Z,0.85
2022-09-17T19:27:16.905Z,0.73
2022-09-17T19:32:18.925Z,1.00
2022-09-17T19:37:20.931Z,1.05
2022-09-17T19:42:23.632Z,0.65
2022-09-17T19:47:25.720Z,0.85
2022-09-17T19:52:27.857Z,0.52
2022-09-17T19:57:30.478Z,0.98
2022-09-17T20:02:32.564Z,0.82
2022-09-17T20:07:35.443Z,1.15
2022-09-17T20:12:37.558Z,0.70
2022-09-17T20:17:39.644Z,1.00
2022-09-17T20:22:41.634Z,1.10
2022-09-17T20:27:43.575Z,0.70
2022-09-17T20:32:45.463Z,0.55
2022-09-17T20:43:09.642Z,0.43
2022-09-17T20:48:11.517Z,1.70
2022-09-17T20:53:13.453Z,0.68
2022-09-17T20:58:17.191Z,0.70
2022-09-17T21:03:21.874Z,0.80
2022-09-17T21:08:24.149Z,0.40
2022-09-17T21:13:26.024Z,0.45
2022-09-17T21:18:28.571Z,0.28
2022-09-17T21:23:32.149Z,0.70
2022-09-17T21:28:36.133Z,0.60
2022-09-17T21:33:38.466Z,0.65
2022-09-17T21:38:40.920Z,0.50
2022-09-17T21:43:44.037Z,0.52
2022-09-17T21:48:47.892Z,0.52
2022-09-17T21:53:55.153Z,0.60
2022-09-17T21:58:59.570Z,1.05
2022-09-17T22:04:02.192Z,0.57
2022-09-17T22:09:05.468Z,0.85
2022-09-17T22:14:12.594Z,0.55
2022-09-17T22:19:17.012Z,0.77
2022-09-17T22:24:20.423Z,0.60
2022-09-17T22:29:22.840Z,1.10
2022-09-17T22:34:26.030Z,0.60
2022-09-17T22:39:28.023Z,0.65
2022-09-17T22:44:29.952Z,0.60
2022-09-17T22:49:31.867Z,1.17
2022-09-17T22:54:34.198Z,0.65
2022-09-17T22:59:36.024Z,0.50
2022-09-17T23:04:37.854Z,0.40
2022-09-17T23:09:39.597Z,0.50
2022-09-17T23:14:41.362Z,0.75
2022-09-17T23:19:43.093Z,0.60
2022-09-17T23:24:44.851Z,0.60
2022-09-17T23:29:46.850Z,0.50
2022-09-17T23:34:48.667Z,0.30
2022-09-17T23:39:50.641Z,0.68
2022-09-17T23:44:52.519Z,0.50
2022-09-17T23:49:54.387Z,0.80
2022-09-17T23:54:58.441Z,0.68
